Time;durP1;ratioP1;P1;durP2;ratioP2;P2;SDS_P1;SDS_P2;PMS_P1;PMS_P2;Temp;Humidity;BMP_temperature;BMP_pressure;BME280_temperature;BME280_humidity;BME280_pressure;Samples;Min_cycle;Max_cycle;Signal;HPM_P1;HPM_P2
2022/02/06 00:00:33;;;;;;;8.30;3.10;;;9.00;99.90;;;;;;5013817;28;20447;-72
2022/02/06 00:02:58;;;;;;;6.33;3.37;;;9.00;99.90;;;;;;5014152;28;20437;-72
2022/02/06 00:05:25;;;;;;;2.90;2.67;;;8.90;99.90;;;;;;5031932;28;20819;-72
2022/02/06 00:07:51;;;;;;;3.33;3.03;;;8.90;99.90;;;;;;5042392;28;20511;-72
2022/02/06 00:10:18;;;;;;;3.47;3.07;;;9.00;99.90;;;;;;5051341;28;20508;-72
2022/02/06 00:12:44;;;;;;;2.93;2.73;;;8.90;99.90;;;;;;5051098;28;20167;-72
2022/02/06 00:15:09;;;;;;;3.03;2.87;;;8.90;99.90;;;;;;5033429;28;20557;-72
2022/02/06 00:17:35;;;;;;;4.40;3.20;;;8.90;99.90;;;;;;5041443;28;20826;-73
2022/02/06 00:20:02;;;;;;;5.07;3.73;;;8.80;99.90;;;;;;5013941;28;20420;-72
2022/02/06 00:22:36;;;;;;;3.30;3.10;;;8.80;99.90;;;;;;5031037;28;20464;-73
2022/02/06 00:34:29;;;;;;;6.03;3.20;;;8.70;99.90;;;;;;4938929;29;20956;-72
2022/02/06 00:41:29;;;;;;;3.27;3.00;;;8.70;99.90;;;;;;5035219;28;20421;-73
2022/02/06 00:43:56;;;;;;;8.00;3.37;;;8.60;99.90;;;;;;5034928;28;20416;-72
2022/02/06 00:46:23;;;;;;;3.37;3.07;;;8.60;99.90;;;;;;5035438;28;20410;-72
2022/02/06 00:48:54;;;;;;;3.73;3.50;;;8.70;99.90;;;;;;5034888;28;20429;-73
2022/02/06 00:53:52;;;;;;;4.77;4.37;;;8.60;99.90;;;;;;5034174;28;20971;-72
2022/02/06 00:56:18;;;;;;;4.93;4.20;;;8.60;99.90;;;;;;5035103;28;20417;-71
2022/02/06 00:58:44;;;;;;;5.17;4.43;;;8.60;99.90;;;;;;5033907;28;20821;-73
2022/02/06 01:01:10;;;;;;;4.57;4.07;;;8.60;99.90;;;;;;5035101;28;20239;-72
2022/02/06 01:03:36;;;;;;;4.37;4.13;;;8.60;99.90;;;;;;5016381;28;20412;-72
2022/02/06 01:06:03;;;;;;;6.23;5.47;;;8.70;99.90;;;;;;5034980;28;20421;-72
2022/02/06 01:08:29;;;;;;;5.03;4.70;;;8.70;99.90;;;;;;5034884;28;20174;-72
2022/02/06 01:10:55;;;;;;;4.80;4.30;;;8.70;99.90;;;;;;5035024;28;20417;-72
2022/02/06 01:13:30;;;;;;;5.50;4.27;;;8.80;99.90;;;;;;5054995;28;20904;-72
2022/02/06 01:16:04;;;;;;;7.03;4.50;;;8.70;99.90;;;;;;5054287;28;20396;-71
2022/02/06 01:18:41;;;;;;;5.60;5.00;;;8.70;99.90;;;;;;5054476;28;20471;-74
2022/02/06 01:24:00;;;;;;;5.70;5.20;;;8.70;99.90;;;;;;5033672;28;20463;-72
2022/02/06 01:26:47;;;;;;;8.50;4.73;;;8.70;99.90;;;;;;5016969;28;20822;-72
2022/02/06 01:29:28;;;;;;;9.47;4.90;;;8.70;99.90;;;;;;5034975;28;20874;-72
2022/02/06 01:34:52;;;;;;;6.33;4.60;;;8.60;99.90;;;;;;5034567;28;20409;-72
2022/02/06 01:37:24;;;;;;;5.00;4.60;;;8.80;99.90;;;;;;5039153;28;20774;-72
2022/02/06 01:40:00;;;;;;;5.40;4.90;;;8.70;99.90;;;;;;5053516;28;20428;-72
2022/02/06 01:45:27;;;;;;;5.37;4.87;;;8.80;99.90;;;;;;5042860;28;20516;-72
2022/02/06 02:01:50;;;;;;;4.87;4.37;;;8.90;99.90;;;;;;5053129;28;20404;-73
2022/02/06 02:04:35;;;;;;;5.50;5.00;;;8.90;99.90;;;;;;5053916;28;20758;-72
2022/02/06 02:49:38;;;;;;;5.13;4.83;;;9.00;99.90;;;;;;5032608;28;20416;-74
2022/02/06 02:52:10;;;;;;;5.00;4.60;;;8.90;99.90;;;;;;5032852;28;20509;-72
2022/02/06 02:54:38;;;;;;;5.17;4.77;;;8.90;99.90;;;;;;5032723;28;20407;-73
2022/02/06 02:57:14;;;;;;;5.13;4.57;;;8.90;99.90;;;;;;5032998;28;20409;-72
2022/02/06 03:00:04;;;;;;;7.20;4.87;;;9.00;99.90;;;;;;5037895;28;20502;-74
2022/02/06 03:02:25;;;;;;;5.83;5.27;;;9.00;99.90;;;;;;5051504;28;20474;-72
2022/02/06 03:04:55;;;;;;;5.70;5.20;;;8.90;99.90;;;;;;5051889;28;20424;-72
2022/02/06 03:07:20;;;;;;;5.10;4.60;;;8.60;99.90;;;;;;5052667;28;20260;-72
2022/02/06 03:09:47;;;;;;;5.80;4.60;;;8.90;99.90;;;;;;5051858;28;20500;-73
2022/02/06 03:12:16;;;;;;;4.80;4.40;;;8.90;99.90;;;;;;5034861;28;20177;-72
2022/02/06 03:14:48;;;;;;;6.87;5.10;;;8.90;99.90;;;;;;5050995;28;20416;-72
2022/02/06 03:17:31;;;;;;;7.47;4.67;;;8.90;99.90;;;;;;5052606;28;20431;-72
2022/02/06 03:20:05;;;;;;;4.57;4.10;;;8.90;99.90;;;;;;5051664;28;20447;-72
2022/02/06 03:22:35;;;;;;;5.10;4.60;;;8.90;99.90;;;;;;5052486;28;20456;-72
2022/02/06 03:25:06;;;;;;;4.67;4.23;;;8.90;99.90;;;;;;5051645;28;20408;-72
2022/02/06 03:27:32;;;;;;;5.20;4.63;;;8.60;99.90;;;;;;5034674;28;20408;-72
2022/02/06 03:29:58;;;;;;;5.60;5.10;;;8.90;99.90;;;;;;5046170;28;20420;-72
2022/02/06 03:32:23;;;;;;;6.53;4.70;;;8.90;99.90;;;;;;5032066;28;20178;-72
2022/02/06 03:34:49;;;;;;;5.20;4.20;;;8.90;99.90;;;;;;5031525;28;20631;-72
2022/02/06 03:37:15;;;;;;;5.10;4.60;;;8.90;99.90;;;;;;5014347;28;20174;-72
2022/02/06 03:39:46;;;;;;;5.00;4.50;;;8.80;99.90;;;;;;5014140;28;20236;-74
2022/02/06 03:42:15;;;;;;;4.50;4.10;;;8.80;99.90;;;;;;5032366;28;20175;-72
2022/02/06 03:44:51;;;;;;;7.33;4.73;;;8.80;99.90;;;;;;5033091;28;20504;-74
2022/02/06 03:47:20;;;;;;;6.00;4.53;;;8.80;99.90;;;;;;5034194;28;20428;-72
2022/02/06 03:49:55;;;;;;;5.17;4.40;;;9.00;99.90;;;;;;5050996;28;20425;-72
2022/02/06 03:52:46;;;;;;;5.60;5.13;;;8.90;99.90;;;;;;5034393;28;20405;-72
2022/02/06 03:55:18;;;;;;;4.83;4.40;;;8.90;99.90;;;;;;5034251;28;20420;-72
2022/02/06 03:57:49;;;;;;;4.83;4.43;;;8.90;99.90;;;;;;5051211;28;20400;-73
2022/02/06 04:00:16;;;;;;;5.30;4.90;;;8.90;99.90;;;;;;5026485;28;20440;-73
2022/02/06 04:02:43;;;;;;;5.30;4.80;;;9.00;99.90;;;;;;5035352;28;20432;-74
2022/02/06 04:05:09;;;;;;;4.90;4.50;;;9.00;99.90;;;;;;5036230;28;20431;-72
2022/02/06 04:07:35;;;;;;;6.83;5.67;;;9.00;99.90;;;;;;5035831;28;20913;-73
2022/02/06 04:10:01;;;;;;;5.53;5.10;;;9.00;99.90;;;;;;5034753;28;20789;-72
2022/02/06 04:12:29;;;;;;;4.80;4.40;;;9.10;99.90;;;;;;5036321;28;20943;-73
2022/02/06 04:17:24;;;;;;;5.00;4.70;;;9.00;99.90;;;;;;5035715;28;20413;-73
2022/02/06 04:19:51;;;;;;;4.80;4.47;;;9.10;99.90;;;;;;5034957;28;20214;-73
2022/02/06 04:22:17;;;;;;;4.80;4.50;;;9.00;99.90;;;;;;5035856;28;20456;-72
2022/02/06 04:24:43;;;;;;;4.80;4.40;;;9.10;99.90;;;;;;5034984;28;20956;-74
2022/02/06 04:27:09;;;;;;;6.47;5.00;;;9.00;99.90;;;;;;5035462;28;20409;-72
2022/02/06 04:29:35;;;;;;;4.70;4.37;;;9.00;99.90;;;;;;5036319;28;20482;-73
2022/02/06 04:32:03;;;;;;;4.40;4.00;;;9.00;99.90;;;;;;5054838;28;20416;-73
2022/02/06 04:34:29;;;;;;;4.10;3.80;;;9.00;99.90;;;;;;5055603;28;20786;-72
2022/02/06 04:43:19;;;;;;;4.00;3.70;;;8.90;99.90;;;;;;5055196;28;20474;-73
2022/02/06 04:53:17;;;;;;;3.80;3.60;;;8.90;99.90;;;;;;5011999;28;20257;-73
2022/02/06 04:55:59;;;;;;;3.90;3.60;;;8.90;99.90;;;;;;5034823;28;20413;-73
2022/02/06 05:30:31;;;;;;;4.60;4.30;;;9.10;99.90;;;;;;5034979;28;20751;-73
2022/02/06 05:35:23;;;;;;;4.20;3.90;;;9.00;99.90;;;;;;5034202;28;20444;-73
2022/02/06 05:37:52;;;;;;;5.23;4.40;;;9.10;99.90;;;;;;5033906;28;20175;-73
2022/02/06 05:40:17;;;;;;;3.90;3.70;;;9.10;99.90;;;;;;5034025;28;20421;-73
2022/02/06 05:42:43;;;;;;;5.20;4.80;;;9.10;99.90;;;;;;5034446;28;20815;-74
2022/02/06 05:45:10;;;;;;;4.13;3.77;;;9.10;99.90;;;;;;5033477;28;20690;-73
2022/02/06 05:47:36;;;;;;;3.70;3.50;;;9.10;99.90;;;;;;5034261;28;20529;-73
2022/02/06 05:50:04;;;;;;;4.20;3.90;;;8.90;99.90;;;;;;5033414;28;20413;-73
2022/02/06 05:52:31;;;;;;;5.10;4.70;;;9.10;99.90;;;;;;5016326;28;20424;-73
2022/02/06 05:54:57;;;;;;;4.50;4.20;;;9.10;99.90;;;;;;5033349;28;20802;-73
2022/02/06 05:57:23;;;;;;;4.63;4.23;;;9.10;99.90;;;;;;5034084;28;20436;-73
2022/02/06 05:59:49;;;;;;;5.43;4.37;;;9.20;99.90;;;;;;5032971;28;20465;-73
2022/02/06 06:02:15;;;;;;;5.47;4.70;;;9.10;99.90;;;;;;5033985;28;20182;-73
2022/02/06 06:04:41;;;;;;;4.67;4.27;;;9.20;99.90;;;;;;5033830;28;20927;-73
2022/02/06 06:07:06;;;;;;;4.87;4.47;;;9.20;99.90;;;;;;5038975;28;20172;-74
2022/02/06 06:09:32;;;;;;;4.83;4.30;;;9.30;99.90;;;;;;5053734;28;20185;-73
2022/02/06 06:11:58;;;;;;;4.80;4.50;;;9.10;99.90;;;;;;5035157;28;20186;-73
2022/02/06 06:14:28;;;;;;;5.30;4.67;;;9.10;99.90;;;;;;5053725;28;20416;-74
2022/02/06 06:16:55;;;;;;;4.67;4.37;;;9.20;99.90;;;;;;5029784;28;20203;-73
2022/02/06 06:19:20;;;;;;;5.13;4.63;;;9.10;99.90;;;;;;5033559;28;20476;-73
2022/02/06 06:21:47;;;;;;;4.33;4.03;;;9.10;99.90;;;;;;5033595;28;20463;-73
2022/02/06 06:24:17;;;;;;;4.30;4.00;;;9.10;99.90;;;;;;5052562;28;20196;-73
2022/02/06 06:26:43;;;;;;;4.10;3.90;;;9.10;99.90;;;;;;5053499;28;20474;-73
2022/02/06 06:29:09;;;;;;;4.10;3.80;;;9.20;99.90;;;;;;5052238;28;20415;-73
2022/02/06 06:31:34;;;;;;;3.93;3.67;;;9.20;99.90;;;;;;5053394;28;20170;-73
2022/02/06 06:34:00;;;;;;;5.90;4.60;;;9.20;99.90;;;;;;5051370;28;20231;-73
2022/02/06 06:36:30;;;;;;;4.30;3.90;;;9.20;99.90;;;;;;5053581;28;20178;-73
2022/02/06 06:38:55;;;;;;;4.93;3.93;;;9.20;99.90;;;;;;5034479;28;20564;-73
2022/02/06 06:41:21;;;;;;;3.90;3.60;;;9.20;99.90;;;;;;5052881;28;20419;-73
2022/02/06 06:43:47;;;;;;;3.93;3.63;;;9.20;99.90;;;;;;5053598;28;20527;-73
2022/02/06 06:46:12;;;;;;;4.30;3.90;;;9.20;99.90;;;;;;5052008;28;20321;-73
2022/02/06 06:48:39;;;;;;;3.80;3.60;;;9.10;99.90;;;;;;5035108;28;20240;-73
2022/02/06 06:51:05;;;;;;;4.17;3.97;;;9.20;99.90;;;;;;5052203;28;20575;-73
2022/02/06 06:53:31;;;;;;;4.67;4.27;;;9.20;99.90;;;;;;5052362;28;20428;-73
2022/02/06 06:56:02;;;;;;;3.90;3.67;;;9.20;99.90;;;;;;5071522;28;20477;-73
2022/02/06 06:58:32;;;;;;;4.13;3.80;;;9.20;99.90;;;;;;5072840;28;20537;-73
2022/02/06 07:03:31;;;;;;;4.10;3.73;;;9.20;99.90;;;;;;5072747;28;20804;-73
2022/02/06 07:05:58;;;;;;;3.53;3.33;;;9.30;99.90;;;;;;5071550;28;20917;-73
2022/02/06 07:08:24;;;;;;;4.60;4.30;;;9.30;99.90;;;;;;5072651;28;20417;-73
2022/02/06 07:10:50;;;;;;;3.80;3.60;;;9.20;99.90;;;;;;5072049;28;20526;-73
2022/02/06 07:13:23;;;;;;;4.00;3.70;;;9.30;99.90;;;;;;5071830;28;20453;-73
2022/02/06 07:15:50;;;;;;;4.63;4.30;;;9.30;99.90;;;;;;5072658;28;20449;-73
2022/02/06 07:18:16;;;;;;;6.07;4.87;;;9.30;99.90;;;;;;5071386;28;20467;-73
2022/02/06 07:20:41;;;;;;;3.40;3.23;;;9.30;99.90;;;;;;5068658;28;20823;-73
2022/02/06 07:23:09;;;;;;;5.23;3.57;;;9.40;99.90;;;;;;5050980;28;20228;-73
2022/02/06 07:25:37;;;;;;;4.00;3.80;;;9.40;99.90;;;;;;5038944;28;20586;-73
2022/02/06 07:28:03;;;;;;;4.30;4.00;;;9.40;99.90;;;;;;5013942;28;20432;-73
2022/02/06 07:30:29;;;;;;;4.07;3.87;;;9.60;99.90;;;;;;5032057;28;20419;-73
2022/02/06 07:32:55;;;;;;;3.97;3.73;;;9.50;99.90;;;;;;5031699;28;20418;-73
2022/02/06 07:35:21;;;;;;;4.50;4.20;;;9.50;99.90;;;;;;5013762;28;20175;-73
2022/02/06 07:37:54;;;;;;;5.27;4.50;;;9.50;99.90;;;;;;5014206;28;20421;-73
2022/02/06 07:40:22;;;;;;;5.20;4.80;;;9.60;99.90;;;;;;5034503;28;20425;-73
2022/02/06 07:42:47;;;;;;;5.63;5.20;;;9.50;99.90;;;;;;5035618;28;20955;-76
2022/02/06 07:45:14;;;;;;;4.60;4.30;;;9.50;99.90;;;;;;5043253;28;20429;-77
2022/02/06 07:47:43;;;;;;;5.77;4.80;;;9.50;99.90;;;;;;5037890;28;20264;-77
2022/02/06 07:50:10;;;;;;;4.50;4.20;;;9.50;99.90;;;;;;5043496;28;20421;-76
2022/02/06 07:52:35;;;;;;;4.27;4.00;;;9.40;99.90;;;;;;5025921;28;20838;-72
2022/02/06 07:55:03;;;;;;;4.80;4.50;;;9.30;99.90;;;;;;5036683;28;20463;-73
2022/02/06 07:57:29;;;;;;;4.93;4.53;;;9.40;99.90;;;;;;5043819;28;20673;-72
2022/02/06 07:59:55;;;;;;;4.90;4.50;;;9.40;99.90;;;;;;4999231;28;20478;-74
2022/02/06 08:02:20;;;;;;;4.27;3.97;;;9.40;99.90;;;;;;5035680;28;20211;-73
2022/02/06 08:04:48;;;;;;;4.80;4.40;;;9.40;99.90;;;;;;5018660;28;20225;-72
2022/02/06 08:07:15;;;;;;;4.33;3.93;;;9.50;99.90;;;;;;5032003;28;20183;-72
2022/02/06 08:12:10;;;;;;;4.20;4.00;;;9.30;99.90;;;;;;5050886;28;20430;-71
2022/02/06 08:14:50;;;;;;;4.70;4.30;;;9.50;99.90;;;;;;5043001;28;20479;-72
2022/02/06 08:17:20;;;;;;;4.30;4.00;;;9.30;99.90;;;;;;5037149;28;20843;-71
2022/02/06 08:19:47;;;;;;;3.83;3.73;;;9.30;99.90;;;;;;5030677;28;20480;-70
2022/02/06 08:22:13;;;;;;;4.10;3.80;;;9.40;99.90;;;;;;5043221;28;20459;-70
2022/02/06 08:24:38;;;;;;;4.40;4.10;;;9.40;99.90;;;;;;5040324;28;20463;-70
2022/02/06 08:27:04;;;;;;;3.73;3.63;;;9.40;99.90;;;;;;5033213;28;20425;-70
2022/02/06 08:29:30;;;;;;;3.90;3.53;;;9.40;99.90;;;;;;5043061;28;20232;-70
2022/02/06 08:31:57;;;;;;;4.00;3.70;;;9.40;99.90;;;;;;5031519;28;20846;-71
2022/02/06 08:34:23;;;;;;;3.17;3.07;;;9.30;99.90;;;;;;5042809;28;20432;-70
2022/02/06 08:36:49;;;;;;;3.87;3.67;;;9.30;99.90;;;;;;5042632;28;20954;-70
2022/02/06 08:39:14;;;;;;;3.80;3.50;;;9.40;99.90;;;;;;5046909;28;20462;-73
2022/02/06 08:41:40;;;;;;;3.13;3.03;;;9.30;99.90;;;;;;5032112;28;20179;-70
2022/02/06 08:44:06;;;;;;;4.00;3.80;;;9.30;99.90;;;;;;5031472;28;20229;-73
2022/02/06 08:46:31;;;;;;;3.40;3.20;;;9.30;99.90;;;;;;5040036;28;20181;-73
2022/02/06 08:48:57;;;;;;;4.03;3.70;;;9.80;99.90;;;;;;5054940;28;20241;-73
2022/02/06 08:51:23;;;;;;;4.50;3.80;;;10.00;99.90;;;;;;5055342;28;20180;-72
2022/02/06 08:53:51;;;;;;;4.50;4.13;;;10.30;99.90;;;;;;5055531;28;20183;-72
2022/02/06 08:56:17;;;;;;;3.67;3.47;;;10.50;99.90;;;;;;5055009;28;20410;-72
2022/02/06 08:58:42;;;;;;;4.27;3.90;;;10.70;99.90;;;;;;5055557;28;20471;-72
2022/02/06 09:01:08;;;;;;;3.80;3.60;;;10.80;99.90;;;;;;5050516;28;20528;-72
2022/02/06 09:03:34;;;;;;;4.30;4.00;;;10.80;99.90;;;;;;5036624;28;20182;-69
2022/02/06 09:05:59;;;;;;;3.40;3.20;;;10.90;99.90;;;;;;5034875;28;20649;-70
2022/02/06 09:08:25;;;;;;;3.63;3.50;;;10.60;99.90;;;;;;5035521;28;20221;-70
2022/02/06 09:10:52;;;;;;;3.70;3.50;;;10.40;99.90;;;;;;5035046;28;20627;-70
2022/02/06 09:13:18;;;;;;;4.23;3.77;;;10.30;99.90;;;;;;5038163;28;20482;-71
2022/02/06 09:15:44;;;;;;;3.30;3.20;;;10.10;99.90;;;;;;5054916;28;20441;-71
2022/02/06 09:18:11;;;;;;;3.53;3.23;;;9.90;99.90;;;;;;5054514;28;20506;-71
2022/02/06 09:20:37;;;;;;;98.23;57.20;;;9.70;99.90;;;;;;5054821;28;20413;-71
2022/02/06 09:23:03;;;;;;;7.90;7.10;;;9.70;99.90;;;;;;5049468;28;20822;-70
2022/02/06 09:25:29;;;;;;;3.60;3.40;;;9.70;99.90;;;;;;5036742;28;20224;-71
2022/02/06 09:27:54;;;;;;;3.93;3.63;;;9.50;99.90;;;;;;5036877;28;20445;-70
2022/02/06 09:30:25;;;;;;;3.60;3.40;;;9.50;99.90;;;;;;5033228;28;21116;-70
2022/02/06 09:35:18;;;;;;;3.20;3.10;;;9.50;99.90;;;;;;5050228;28;20424;-70
2022/02/06 09:37:43;;;;;;;3.27;3.17;;;9.50;99.90;;;;;;5041975;28;20433;-70
2022/02/06 09:40:13;;;;;;;3.60;3.40;;;9.20;99.90;;;;;;5041416;28;20437;-71
2022/02/06 09:42:41;;;;;;;3.33;3.03;;;9.40;99.90;;;;;;5054778;28;20170;-70
2022/02/06 09:45:07;;;;;;;3.20;3.10;;;9.40;99.90;;;;;;5050619;28;20420;-71
2022/02/06 09:47:33;;;;;;;2.90;2.70;;;9.30;99.90;;;;;;5036202;28;20447;-70
2022/02/06 09:49:59;;;;;;;3.07;2.87;;;9.30;99.90;;;;;;5038300;28;20432;-75
2022/02/06 09:52:27;;;;;;;2.90;2.70;;;9.40;99.90;;;;;;5039995;28;20186;-70
2022/02/06 09:54:54;;;;;;;2.60;2.50;;;9.50;99.90;;;;;;5048074;28;20420;-70
2022/02/06 09:57:28;;;;;;;3.03;2.90;;;9.40;99.90;;;;;;5042423;28;20444;-70
2022/02/06 09:59:55;;;;;;;2.83;2.73;;;9.30;99.90;;;;;;5050415;28;20519;-70
2022/02/06 10:02:30;;;;;;;2.70;2.60;;;9.30;99.90;;;;;;5049476;28;20424;-70
2022/02/06 10:04:58;;;;;;;2.63;2.40;;;9.30;99.90;;;;;;5042858;28;20413;-70
2022/02/06 10:07:37;;;;;;;2.70;2.60;;;9.20;99.90;;;;;;5044346;28;20436;-71
2022/02/06 10:10:06;;;;;;;2.40;2.30;;;9.20;99.90;;;;;;5033733;28;20410;-71
2022/02/06 10:12:36;;;;;;;2.27;2.27;;;9.30;99.90;;;;;;5039803;28;20982;-71
2022/02/06 10:15:03;;;;;;;2.23;2.23;;;9.40;99.90;;;;;;5047255;28;20420;-75
2022/02/06 10:17:29;;;;;;;2.00;2.00;;;9.30;99.90;;;;;;5035725;28;20433;-71
2022/02/06 10:19:58;;;;;;;2.60;2.60;;;9.30;99.90;;;;;;5051788;28;20467;-71
2022/02/06 10:22:28;;;;;;;3.40;3.30;;;9.40;99.90;;;;;;5063273;28;20902;-71
2022/02/06 10:25:07;;;;;;;2.90;2.80;;;9.30;99.90;;;;;;5063004;28;20481;-70
2022/02/06 10:28:10;;;;;;;3.00;2.90;;;9.30;99.90;;;;;;5073630;28;20494;-69
2022/02/06 10:30:44;;;;;;;2.87;2.77;;;9.30;99.90;;;;;;5073201;28;20464;-70
2022/02/06 10:33:16;;;;;;;3.00;2.90;;;9.30;99.90;;;;;;5065458;28;20502;-71
2022/02/06 10:35:53;;;;;;;2.70;2.60;;;9.30;99.90;;;;;;5052172;28;20766;-70
2022/02/06 10:38:28;;;;;;;3.27;3.07;;;9.30;99.90;;;;;;5051180;28;20959;-71
2022/02/06 10:41:18;;;;;;;3.00;2.90;;;9.20;99.90;;;;;;5053269;28;20400;-70
2022/02/06 10:43:54;;;;;;;255.13;136.13;;;9.20;99.90;;;;;;5067222;28;20512;-70
2022/02/06 10:46:20;;;;;;;3.90;3.70;;;9.20;99.90;;;;;;5072230;28;20863;-70
2022/02/06 10:49:10;;;;;;;2.47;2.40;;;9.20;99.90;;;;;;5071457;28;20467;-70
2022/02/06 10:51:47;;;;;;;2.60;2.50;;;9.20;99.90;;;;;;5065314;28;20185;-71
2022/02/06 10:54:28;;;;;;;2.50;2.40;;;9.20;99.90;;;;;;5068373;28;20431;-71
2022/02/06 10:57:03;;;;;;;2.20;2.20;;;9.20;99.90;;;;;;5072530;28;20415;-71
2022/02/06 10:59:49;;;;;;;4.50;4.10;;;9.10;99.90;;;;;;5055978;28;20456;-71
2022/02/06 11:02:33;;;;;;;1.80;1.70;;;9.10;99.90;;;;;;5052079;28;20423;-71
2022/02/06 11:05:07;;;;;;;1.80;1.80;;;9.10;99.90;;;;;;5057025;28;20482;-71
2022/02/06 11:07:33;;;;;;;1.37;1.37;;;9.00;99.90;;;;;;5055347;28;20432;-71
2022/02/06 11:10:13;;;;;;;1.70;1.60;;;8.90;99.90;;;;;;5052688;28;20433;-70
2022/02/06 11:12:49;;;;;;;49.47;33.40;;;9.00;99.90;;;;;;5051488;28;20974;-73
2022/02/06 11:15:31;;;;;;;7.40;5.23;;;9.00;99.90;;;;;;5070798;28;20430;-70
2022/02/06 11:18:08;;;;;;;2.30;2.20;;;9.00;99.90;;;;;;5070280;28;20533;-71
2022/02/06 11:20:35;;;;;;;2.00;2.00;;;9.00;99.90;;;;;;5059430;28;20426;-70
2022/02/06 11:23:03;;;;;;;2.00;2.00;;;9.00;99.90;;;;;;5048038;28;20446;-71
2022/02/06 11:25:33;;;;;;;2.23;2.23;;;8.90;99.90;;;;;;5032050;28;20440;-71
2022/02/06 11:28:01;;;;;;;2.20;2.20;;;8.90;99.90;;;;;;5032530;28;20432;-71
2022/02/06 11:30:28;;;;;;;1.70;1.60;;;8.80;99.90;;;;;;5013741;28;20413;-71
2022/02/06 11:32:54;;;;;;;2.80;1.57;;;8.80;99.90;;;;;;5026108;28;20451;-71
2022/02/06 11:35:24;;;;;;;1.40;1.40;;;8.80;99.90;;;;;;5042741;28;20425;-71
2022/02/06 11:44:22;;;;;;;1.57;1.57;;;8.80;99.90;;;;;;5032720;28;20760;-72
2022/02/06 11:47:00;;;;;;;2.33;2.23;;;8.80;99.90;;;;;;5032759;28;20443;-72
2022/02/06 11:49:26;;;;;;;1.30;1.30;;;8.70;99.90;;;;;;5044694;28;21094;-72
2022/02/06 11:51:59;;;;;;;1.57;1.50;;;8.70;99.90;;;;;;5035907;28;20439;-72
2022/02/06 11:54:48;;;;;;;1.40;1.40;;;8.70;99.90;;;;;;5017405;28;20232;-71
2022/02/06 11:57:24;;;;;;;1.20;1.20;;;8.70;99.90;;;;;;5012802;28;20424;-71
2022/02/06 12:00:02;;;;;;;1.10;1.10;;;8.70;99.90;;;;;;5031247;28;20462;-72
2022/02/06 12:02:30;;;;;;;1.20;1.20;;;8.60;99.90;;;;;;5030544;28;20516;-72
2022/02/06 12:05:26;;;;;;;1.20;1.20;;;8.60;99.90;;;;;;5032520;28;20417;-72
2022/02/06 12:07:52;;;;;;;1.50;1.50;;;8.50;99.90;;;;;;5032131;28;20436;-71
2022/02/06 12:10:22;;;;;;;1.30;1.30;;;8.50;99.90;;;;;;5031063;28;20500;-70
2022/02/06 12:13:17;;;;;;;1.10;1.10;;;8.60;99.90;;;;;;5031877;28;20220;-70
2022/02/06 12:16:02;;;;;;;1.60;1.60;;;8.60;99.90;;;;;;5032070;28;20421;-70
2022/02/06 12:18:29;;;;;;;1.40;1.30;;;8.60;99.90;;;;;;5031214;28;20475;-70
2022/02/06 12:21:07;;;;;;;1.20;1.20;;;8.70;99.90;;;;;;5031783;28;20465;-70
2022/02/06 12:23:39;;;;;;;1.90;1.90;;;8.50;99.90;;;;;;5036484;28;20453;-70
2022/02/06 12:26:48;;;;;;;1.20;1.20;;;8.70;99.90;;;;;;5038648;28;20425;-71
2022/02/06 12:29:21;;;;;;;1.40;1.40;;;8.70;99.90;;;;;;5037351;28;20440;-71
2022/02/06 12:31:47;;;;;;;1.30;1.30;;;8.50;99.90;;;;;;5026160;28;20415;-70
2022/02/06 12:36:56;;;;;;;1.20;1.20;;;8.50;99.90;;;;;;5042362;28;20440;-71
2022/02/06 12:37:28;;;;;;;1.50;1.50;;;8.50;99.90;;;;;;5034691;28;20460;-70
2022/02/06 12:39:57;;;;;;;1.70;1.60;;;8.60;99.90;;;;;;5028560;28;20609;-71
2022/02/06 12:42:29;;;;;;;2.40;2.30;;;8.90;99.90;;;;;;5038257;28;20431;-72
2022/02/06 12:45:00;;;;;;;1.90;1.90;;;8.60;99.90;;;;;;5035637;28;20523;-70
2022/02/06 12:47:27;;;;;;;2.00;2.00;;;8.70;99.90;;;;;;5025082;28;20474;-70
2022/02/06 12:49:53;;;;;;;1.80;1.80;;;8.50;99.90;;;;;;5022402;28;20447;-70
2022/02/06 12:52:19;;;;;;;2.00;1.90;;;8.80;99.90;;;;;;5046783;28;20425;-71
2022/02/06 12:54:45;;;;;;;2.17;2.07;;;8.80;99.90;;;;;;5043876;28;20419;-72
2022/02/06 12:57:11;;;;;;;1.70;1.70;;;8.80;99.90;;;;;;5036810;28;20431;-70
2022/02/06 12:59:40;;;;;;;1.47;1.47;;;8.90;99.90;;;;;;5042023;28;20215;-70
2022/02/06 13:02:08;;;;;;;1.40;1.40;;;8.90;99.90;;;;;;5045374;28;20177;-71
2022/02/06 13:04:41;;;;;;;1.60;1.60;;;8.90;99.90;;;;;;5053939;28;20432;-70
2022/02/06 13:07:07;;;;;;;2.63;2.00;;;8.90;99.90;;;;;;5036981;28;20416;-70
2022/02/06 13:09:39;;;;;;;1.70;1.70;;;8.90;99.90;;;;;;5052359;28;20478;-70
2022/02/06 13:12:14;;;;;;;1.77;1.67;;;9.00;99.90;;;;;;5041850;28;20425;-71
2022/02/06 13:23:06;;;;;;;1.80;1.80;;;9.00;99.90;;;;;;5034621;28;20483;-70
2022/02/06 13:25:37;;;;;;;2.10;2.10;;;9.10;99.90;;;;;;5032565;28;20796;-70
2022/02/06 13:33:48;;;;;;;2.57;2.30;;;9.20;99.90;;;;;;5009787;28;20445;-71
2022/02/06 13:36:30;;;;;;;2.20;2.10;;;9.30;99.90;;;;;;5034082;28;20405;-70
2022/02/06 13:38:59;;;;;;;2.13;2.10;;;9.40;99.90;;;;;;5034916;28;20456;-71
2022/02/06 13:41:31;;;;;;;2.20;2.20;;;9.30;99.90;;;;;;5034639;28;20432;-70
2022/02/06 13:43:58;;;;;;;3.90;2.07;;;9.20;99.90;;;;;;5035190;28;20450;-71
2022/02/06 13:46:31;;;;;;;1.90;1.80;;;9.20;99.90;;;;;;5034381;28;20458;-70
2022/02/06 13:48:57;;;;;;;50.70;35.33;;;9.20;99.90;;;;;;5034784;28;20436;-71
2022/02/06 13:51:30;;;;;;;7.13;6.40;;;9.10;99.90;;;;;;5016415;28;20483;-71
2022/02/06 13:54:03;;;;;;;2.40;2.20;;;9.20;99.90;;;;;;5054595;28;20482;-71
2022/02/06 13:56:30;;;;;;;3.90;3.07;;;9.20;99.90;;;;;;5053835;28;20425;-70
2022/02/06 13:59:06;;;;;;;1.70;1.70;;;9.10;99.90;;;;;;5054368;28;20490;-71
2022/02/06 14:01:43;;;;;;;1.50;1.50;;;9.10;99.90;;;;;;5052903;28;20423;-71
2022/02/06 14:04:36;;;;;;;1.40;1.40;;;9.00;99.90;;;;;;5050171;28;20431;-71
2022/02/06 14:07:15;;;;;;;5.63;5.00;;;9.00;99.90;;;;;;5049285;28;20507;-77
2022/02/06 14:12:24;;;;;;;5.63;5.13;;;10.20;99.90;;;;;;5034214;28;20410;-75
2022/02/06 14:14:55;;;;;;;3.13;2.93;;;10.70;99.90;;;;;;5034490;28;20442;-78
2022/02/06 14:17:31;;;;;;;4.30;3.33;;;11.10;99.90;;;;;;5033561;28;20414;-77
2022/02/06 14:19:59;;;;;;;2.10;2.00;;;11.50;99.90;;;;;;5034002;28;20478;-78
2022/02/06 14:22:33;;;;;;;3.30;3.00;;;11.70;99.90;;;;;;5033637;28;20457;-77
2022/02/06 14:25:02;;;;;;;1.90;1.70;;;12.00;99.90;;;;;;5034677;28;20931;-79
2022/02/06 14:27:32;;;;;;;2.80;2.60;;;12.30;99.90;;;;;;5035115;28;20793;-78
2022/02/06 14:30:05;;;;;;;2.97;2.77;;;12.60;99.90;;;;;;5054259;28;20443;-75
2022/02/06 14:32:31;;;;;;;2.30;2.20;;;12.80;99.90;;;;;;5053218;28;20400;-77
2022/02/06 14:35:06;;;;;;;2.77;2.57;;;13.00;99.90;;;;;;5051962;28;20441;-77
2022/02/06 14:37:48;;;;;;;3.20;2.90;;;13.10;99.90;;;;;;5032923;28;20543;-77
2022/02/06 14:40:51;;;;;;;3.57;3.27;;;13.30;99.90;;;;;;5033162;28;20933;-76
2022/02/06 14:43:30;;;;;;;2.50;2.20;;;13.40;99.90;;;;;;5032555;28;20425;-77
2022/02/06 14:45:56;;;;;;;2.40;2.30;;;13.40;99.90;;;;;;5037429;28;20837;-77
2022/02/06 14:48:24;;;;;;;3.20;2.93;;;13.50;99.90;;;;;;5052325;28;20433;-77
2022/02/06 14:50:50;;;;;;;4.07;3.67;;;13.50;99.10;;;;;;5053536;28;20176;-77
2022/02/06 14:53:19;;;;;;;2.73;2.63;;;13.50;99.90;;;;;;5036931;28;20438;-77
2022/02/06 14:55:44;;;;;;;2.63;2.53;;;13.40;99.90;;;;;;5033400;28;20418;-76
2022/02/06 14:58:11;;;;;;;2.50;2.30;;;13.40;99.20;;;;;;5033319;28;20906;-77
2022/02/06 15:00:38;;;;;;;2.77;2.53;;;13.40;99.40;;;;;;5032748;28;20605;-76
2022/02/06 15:03:08;;;;;;;3.10;2.60;;;13.40;99.30;;;;;;5033299;28;20452;-76
2022/02/06 15:05:35;;;;;;;2.43;2.27;;;13.30;99.90;;;;;;5031570;28;20491;-76
2022/02/06 15:08:02;;;;;;;2.60;2.40;;;13.40;99.00;;;;;;5053121;28;20485;-77
2022/02/06 15:10:28;;;;;;;3.13;2.93;;;13.30;98.90;;;;;;5052146;28;20511;-77
2022/02/06 15:12:54;;;;;;;2.60;2.50;;;13.30;99.90;;;;;;5053019;28;20409;-77
2022/02/06 15:15:21;;;;;;;3.00;2.70;;;13.30;99.30;;;;;;5052343;28;20495;-76
2022/02/06 15:17:50;;;;;;;3.20;3.00;;;13.30;99.90;;;;;;5050133;28;20445;-77
2022/02/06 15:20:15;;;;;;;3.40;3.10;;;13.30;99.90;;;;;;5052614;28;20512;-77
2022/02/06 15:22:41;;;;;;;3.07;2.80;;;13.30;99.90;;;;;;5051760;28;20462;-77
2022/02/06 15:25:07;;;;;;;3.00;2.80;;;13.40;99.10;;;;;;5052611;28;20192;-77
2022/02/06 15:27:33;;;;;;;3.23;3.03;;;13.40;99.10;;;;;;5051545;28;20219;-77
2022/02/06 15:29:58;;;;;;;2.70;2.60;;;13.40;99.90;;;;;;5052825;28;20831;-76
2022/02/06 15:32:25;;;;;;;2.57;2.30;;;13.30;99.70;;;;;;5018314;28;20239;-77
2022/02/06 15:34:51;;;;;;;2.77;2.57;;;13.30;99.50;;;;;;5032456;28;20182;-76
2022/02/06 15:37:18;;;;;;;3.30;2.70;;;13.10;98.60;;;;;;5037908;28;20501;-70
2022/02/06 15:39:45;;;;;;;2.70;2.50;;;13.00;99.80;;;;;;5046842;28;20667;-70
2022/02/06 15:42:16;;;;;;;2.80;2.50;;;12.60;99.00;;;;;;5052197;28;20409;-70
2022/02/06 15:44:47;;;;;;;3.47;2.70;;;12.00;99.50;;;;;;5032950;28;20422;-70
2022/02/06 15:47:14;;;;;;;3.73;2.77;;;11.60;99.90;;;;;;5032021;28;20448;-70
2022/02/06 15:49:40;;;;;;;3.60;2.97;;;11.30;99.90;;;;;;5013922;28;20431;-70
2022/02/06 15:52:07;;;;;;;2.47;2.27;;;11.10;99.90;;;;;;5044848;28;20858;-69